createdAt,value
2023-02-15T00:06:08.336Z,29.48
2023-02-15T00:16:14.837Z,29.67
2023-02-15T00:26:17.470Z,26.13
2023-02-15T00:36:21.426Z,30.83
2023-02-15T00:46:24.115Z,29.65
2023-02-15T00:56:29.244Z,27.17
2023-02-15T01:06:31.903Z,30.50
2023-02-15T01:16:35.859Z,27.27
2023-02-15T01:26:38.638Z,30.70
2023-02-15T01:36:42.579Z,28.40
2023-02-15T01:46:51.574Z,21.20
2023-02-15T01:56:59.915Z,22.85
2023-02-15T02:07:05.971Z,23.77
2023-02-15T02:17:17.880Z,34.65
2023-02-15T02:27:29.662Z,33.15
2023-02-15T02:37:42.525Z,33.92
2023-02-15T02:47:48.406Z,35.53
2023-02-15T02:57:57.131Z,39.58
2023-02-15T03:08:01.937Z,29.80
2023-02-15T03:18:06.478Z,30.00
2023-02-15T03:28:12.917Z,30.10
2023-02-15T03:38:21.984Z,24.63
2023-02-15T03:48:28.458Z,24.33
2023-02-15T03:58:50.166Z,32.40
2023-02-15T04:09:10.069Z,24.63
2023-02-15T04:19:31.593Z,23.58
2023-02-15T04:29:34.598Z,25.10
2023-02-15T04:39:38.789Z,22.63
2023-02-15T04:49:41.589Z,25.08
2023-02-15T04:59:45.537Z,24.17
2023-02-15T05:09:48.206Z,25.27
2023-02-15T05:19:52.244Z,23.45
2023-02-15T05:29:56.099Z,17.52
2023-02-15T05:40:00.224Z,15.30
2023-02-15T05:50:02.867Z,13.38
2023-02-15T06:00:09.320Z,16.10
2023-02-15T06:10:12.280Z,15.05
2023-02-15T06:20:16.617Z,15.65
2023-02-15T06:30:19.656Z,18.55
2023-02-15T06:40:23.711Z,16.42
2023-02-15T06:50:26.298Z,19.27
2023-02-15T07:00:30.317Z,17.02
2023-02-15T07:10:33.192Z,18.38
2023-02-15T07:20:37.721Z,16.70
2023-02-15T07:30:41.189Z,16.60
2023-02-15T07:40:45.790Z,25.05
2023-02-15T07:50:48.407Z,25.85
2023-02-15T08:00:58.313Z,29.42
2023-02-15T08:11:20.340Z,24.65
2023-02-15T08:21:25.140Z,27.95
2023-02-15T08:31:28.170Z,30.27
2023-02-15T08:41:34.878Z,31.98
2023-02-15T08:51:40.019Z,32.20
2023-02-15T09:01:44.559Z,38.50
2023-02-15T09:11:49.272Z,44.05
2023-02-15T09:21:53.648Z,32.50
2023-02-15T09:31:56.645Z,42.20
2023-02-15T09:42:41.273Z,36.78
2023-02-15T09:53:00.091Z,37.22
2023-02-15T10:03:16.546Z,34.35
2023-02-15T10:13:33.098Z,36.47
2023-02-15T10:23:48.331Z,38.42
2023-02-15T10:34:05.091Z,37.50
2023-02-15T10:44:21.756Z,38.55
2023-02-15T10:54:33.367Z,41.97
2023-02-15T11:04:44.014Z,46.90
2023-02-15T11:14:55.027Z,40.35
2023-02-15T11:25:00.671Z,37.63
2023-02-15T11:35:12.359Z,38.97
2023-02-15T11:45:27.337Z,39.15
2023-02-15T11:55:32.390Z,36.88
2023-02-15T12:05:37.985Z,33.78
2023-02-15T12:15:44.248Z,37.75
2023-02-15T12:25:55.071Z,33.90
2023-02-15T12:36:03.469Z,34.38
2023-02-15T12:46:22.028Z,40.20
2023-02-15T12:56:29.515Z,37.90
2023-02-15T13:06:35.486Z,34.60
2023-02-15T13:16:41.413Z,33.85
2023-02-15T13:26:46.074Z,36.20
2023-02-15T13:36:56.445Z,37.03
2023-02-15T13:47:12.126Z,34.90
2023-02-15T13:57:37.192Z,33.58
2023-02-15T14:07:56.828Z,33.17
2023-02-15T14:18:14.751Z,36.08
2023-02-15T14:28:23.917Z,37.47
2023-02-15T14:38:41.239Z,32.77
2023-02-15T14:48:48.203Z,43.70
2023-02-15T14:59:14.120Z,39.38
2023-02-15T15:09:24.418Z,47.65
2023-02-15T15:20:00.455Z,38.53
2023-02-15T15:30:05.202Z,38.30
2023-02-15T15:40:46.310Z,38.42
2023-02-15T15:50:54.900Z,36.20
2023-02-15T16:01:04.471Z,43.80
2023-02-15T16:11:16.738Z,42.97
2023-02-15T16:21:21.520Z,42.63
2023-02-15T16:31:25.673Z,43.72
2023-02-15T16:41:30.698Z,53.80
2023-02-15T16:51:37.175Z,37.92
2023-02-15T17:01:39.867Z,45.45
2023-02-15T17:11:45.496Z,45.05
2023-02-15T17:21:52.100Z,44.67
2023-02-15T17:31:58.938Z,51.35
2023-02-15T17:42:01.742Z,47.50
2023-02-15T17:52:06.117Z,42.67
2023-02-15T18:02:29.722Z,45.53
2023-02-15T18:12:36.550Z,47.63
2023-02-15T18:22:39.326Z,45.83
2023-02-15T18:32:45.813Z,59.35
2023-02-15T18:42:49.373Z,48.35
2023-02-15T18:52:53.833Z,46.65
2023-02-15T19:02:57.825Z,48.10
2023-02-15T19:13:01.894Z,48.80
2023-02-15T19:23:06.757Z,50.72
2023-02-15T19:33:17.592Z,49.95
2023-02-15T19:43:26.020Z,46.45
2023-02-15T19:53:30.569Z,45.70
2023-02-15T20:03:33.320Z,41.13
2023-02-15T20:13:37.401Z,43.80
2023-02-15T20:23:40.761Z,44.55
2023-02-15T20:33:44.851Z,43.60
2023-02-15T20:43:47.589Z,43.63
2023-02-15T20:53:51.655Z,49.00
2023-02-15T21:03:55.062Z,49.50
2023-02-15T21:13:59.187Z,49.25
2023-02-15T21:24:02.041Z,47.17
2023-02-15T21:34:06.078Z,47.75
2023-02-15T21:44:34.332Z,44.67
2023-02-15T21:54:38.397Z,40.60
2023-02-15T22:04:41.047Z,44.55
2023-02-15T22:14:51.319Z,47.38
2023-02-15T22:24:53.952Z,43.63
2023-02-15T22:34:57.966Z,45.53
2023-02-15T22:45:00.611Z,43.38
2023-02-15T22:55:04.688Z,49.75
2023-02-15T23:05:07.434Z,49.35
2023-02-15T23:15:12.693Z,41.45
2023-02-15T23:25:17.433Z,41.53
2023-02-15T23:35:21.533Z,44.85
2023-02-15T23:45:24.836Z,43.33
2023-02-15T23:55:35.304Z,52.30
